Airport ID:K00U
Update Time (UTC):01/12/2021 09:38
Wind Speed (Knots):11
Wind Direction (Magnetic):200
Temperature (°C):12
Dew Point (°C):0
Humidity (%):42
Altimeter (inHg):29.87
Density Altitude (Feet):
Visibility:10+
Clouds (Hundreds of feet):CLR
Present Weather:
METAR:METAR K00U 010935Z AUTO 22017G22KT 10SM CLR 12/00 A2987 RMK A01

The data displayed is for advisory purposes only and is not to be used for flight planning or operations.